This is the latest recevied weather packets stored in our database for station/object K2ATL. If no packets are shown the sender has not sent any weather packets the latest 10 day(s).
| Time | Temp. | Humidity | Pressure | Rain* | Wind** | Luminosity | Snow |
|---|---|---|---|---|---|---|---|
| 1787723005 | 19.44° C | 80% | 1103.9 hPa | 0 mm | - | 0 W/m² | - |
| 1787722699 | 19.44° C | 83% | 1104.1 hPa | 0 mm | - | 0 W/m² | - |
| 1787722394 | 18.89° C | 86% | 1104.1 hPa | 0 mm | - | 0 W/m² | - |
| 1787722090 | 19.44° C | 86% | 1104.1 hPa | 0 mm | - | 0 W/m² | - |
| 1787721786 | 19.44° C | 86% | 1104.1 hPa | 0 mm | - | 0 W/m² | - |
| 1787721481 | 19.44° C | 85% | 1104 hPa | 0 mm | - | 0 W/m² | - |
| 1787721180 | 19.44° C | 83% | 1104.1 hPa | 0 mm | - | 0 W/m² | - |
| 1787720876 | 20° C | 83% | 1104.3 hPa | 0 mm | - | 0 W/m² | - |
| 1787720576 | 20° C | 81% | 1104.3 hPa | 0 mm | - | 0 W/m² | - |
| 1787720270 | 20° C | 79% | 1104.3 hPa | 0 mm | - | 0 W/m² | - |
| 1787719970 | 20.56° C | 79% | 1104.3 hPa | 0 mm | - | 0 W/m² | - |
| 1787719665 | 20.56° C | 79% | 1104.6 hPa | 0 mm | - | 0 W/m² | - |
| 1787719360 | 21.11° C | 78% | 1104.7 hPa | 0 mm | - | 0 W/m² | - |
| 1787719056 | 21.67° C | 75% | 1104.5 hPa | 0 mm | - | 0 W/m² | - |
| 1787718751 | 22.78° C | 68% | 1104.8 hPa | 0 mm | - | 0 W/m² | - |
| 1787718446 | 22.78° C | 68% | 1104.7 hPa | 0 mm | - | 0 W/m² | - |
| 1787718141 | 22.78° C | 68% | 1104.7 hPa | 0 mm | - | 0 W/m² | - |
| 1787717838 | 22.78° C | 68% | 1104.8 hPa | 0 mm | - | 0 W/m² | - |
| 1787717534 | 22.78° C | 69% | 1104.8 hPa | 0 mm | - | 0 W/m² | - |
| 1787717229 | 22.22° C | 70% | 1104.5 hPa | 0 mm | - | 0 W/m² | - |
| 1787716928 | 22.22° C | 73% | 1104.8 hPa | 0 mm | - | 0 W/m² | - |
| 1787716628 | 22.22° C | 72% | 1104.6 hPa | 0 mm | - | 0 W/m² | - |
| 1787716322 | 22.22° C | 71% | 1104.5 hPa | 0 mm | - | 0 W/m² | - |
| 1787716021 | 22.22° C | 71% | 1104.6 hPa | 0 mm | - | 0 W/m² | - |
| 1787715717 | 22.22° C | 72% | 1104.6 hPa | 0 mm | - | 0 W/m² | - |
* Rain latest hour (hover to see other rain measurements)
** Current wind speed in m/s (hover to see current wind gust speed)